Terminal Aerodrome Forecast
Issued by NWS

Home | Current Version | Previous Version | Text Only | Print | Product List | Glossary On
Versions: 1 2 3 4 5 6 7 8 9 10 11 12 13 14 15 16 17
000
FTUS41 KGYX 241128
TAFAUG
TAF
KAUG 241128Z 2412/2512 VRB03KT P6SM SCT080
      TEMPO 2412/2415 BKN070
     FM241500 23005KT P6SM SCT120 BKN200
     FM242100 19005KT P6SM BKN200=

USA.gov is the U.S. government's official web portal to all federal, state and local government web resources and services.